Time;durP1;ratioP1;P1;durP2;ratioP2;P2;SDS_P1;SDS_P2;PMS_P1;PMS_P2;Temp;Humidity;BMP_temperature;BMP_pressure;BME280_temperature;BME280_humidity;BME280_pressure;Samples;Min_cycle;Max_cycle;Signal;HPM_P1;HPM_P2
2022/07/29 00:00:47;;;;;;;27.48;25.98;;;25.00;46.00;;;;;;5049828;28;20027;-82
2022/07/29 00:03:13;;;;;;;27.90;26.40;;;25.00;46.80;;;;;;5051438;28;20055;-82
2022/07/29 00:05:40;;;;;;;26.80;25.40;;;24.70;47.50;;;;;;5050055;28;20482;-81
2022/07/29 00:08:07;;;;;;;26.98;25.60;;;24.80;47.50;;;;;;5033730;28;20029;-82
2022/07/29 00:10:33;;;;;;;28.27;26.48;;;24.70;47.50;;;;;;5051287;28;20128;-82
2022/07/29 00:12:59;;;;;;;26.35;24.98;;;24.70;47.20;;;;;;5051368;28;20357;-81
2022/07/29 00:15:25;;;;;;;27.42;25.83;;;24.60;47.80;;;;;;5050879;28;20029;-82
2022/07/29 00:17:51;;;;;;;26.27;24.88;;;24.40;48.00;;;;;;5051504;28;20025;-82
2022/07/29 00:20:17;;;;;;;28.98;27.27;;;24.40;48.50;;;;;;5050838;28;20356;-82
2022/07/29 00:22:43;;;;;;;27.75;26.15;;;24.40;48.10;;;;;;5051304;28;20490;-82
2022/07/29 00:25:09;;;;;;;28.00;26.45;;;24.60;47.80;;;;;;5049839;28;20021;-82
2022/07/29 00:27:36;;;;;;;26.67;25.10;;;24.70;47.30;;;;;;5017218;28;20045;-81
2022/07/29 00:30:03;;;;;;;27.63;26.13;;;24.80;47.60;;;;;;5049741;28;20568;-82
2022/07/29 00:32:29;;;;;;;26.50;25.00;;;24.60;47.70;;;;;;5032095;28;20479;-82
2022/07/29 00:37:39;;;;;;;26.90;25.48;;;24.50;48.50;;;;;;5054426;28;20052;-82
2022/07/29 00:40:06;;;;;;;24.70;23.30;;;24.50;48.80;;;;;;5050774;28;20379;-82
2022/07/29 00:42:45;;;;;;;26.52;25.13;;;24.30;49.30;;;;;;5033289;28;20056;-82
2022/07/29 00:45:11;;;;;;;27.83;26.17;;;24.30;49.40;;;;;;5048649;28;20403;-81
2022/07/29 00:47:37;;;;;;;27.40;26.08;;;24.40;49.20;;;;;;5050619;28;20033;-81
2022/07/29 00:50:04;;;;;;;27.65;26.15;;;24.40;49.10;;;;;;5049567;28;20045;-82
2022/07/29 00:52:31;;;;;;;28.83;26.77;;;24.40;48.90;;;;;;5049534;28;20038;-82
2022/07/29 00:54:57;;;;;;;27.38;25.88;;;24.60;48.70;;;;;;5049545;28;20032;-81
2022/07/29 00:57:23;;;;;;;28.10;26.27;;;24.60;48.50;;;;;;5049786;28;20387;-82
2022/07/29 00:59:49;;;;;;;27.98;26.48;;;24.70;48.30;;;;;;5050895;28;20025;-82
2022/07/29 01:02:15;;;;;;;28.08;26.48;;;24.70;48.30;;;;;;5050056;28;20431;-82
2022/07/29 01:04:41;;;;;;;28.40;26.70;;;24.60;48.40;;;;;;5049569;28;20029;-81
2022/07/29 01:07:07;;;;;;;27.33;25.90;;;24.60;48.40;;;;;;5050748;28;20383;-82
2022/07/29 01:09:34;;;;;;;29.30;27.80;;;24.60;48.70;;;;;;5049479;28;20029;-82
2022/07/29 01:12:00;;;;;;;27.45;25.52;;;24.50;48.80;;;;;;5049493;28;20387;-81
2022/07/29 01:14:26;;;;;;;28.38;26.52;;;24.50;49.20;;;;;;5049360;28;20064;-82
2022/07/29 01:16:57;;;;;;;26.50;25.02;;;24.20;49.80;;;;;;5032022;28;20423;-81
2022/07/29 01:19:34;;;;;;;26.65;25.10;;;24.10;50.00;;;;;;5049550;28;20025;-81
2022/07/29 01:22:10;;;;;;;27.13;25.42;;;24.10;49.90;;;;;;5049381;28;20025;-82
2022/07/29 01:24:51;;;;;;;26.83;25.10;;;24.10;50.00;;;;;;5049243;28;20036;-82
2022/07/29 01:27:38;;;;;;;25.55;24.15;;;24.10;49.80;;;;;;5048849;28;20033;-82
2022/07/29 01:30:05;;;;;;;24.95;23.50;;;24.10;49.80;;;;;;5048812;28;20040;-81
2022/07/29 01:32:35;;;;;;;26.13;24.52;;;23.90;50.60;;;;;;5032005;28;20045;-82
2022/07/29 01:35:03;;;;;;;26.27;24.73;;;23.80;51.40;;;;;;5049101;28;20029;-81
2022/07/29 01:37:32;;;;;;;25.48;23.67;;;23.80;51.50;;;;;;5032510;28;20033;-82
2022/07/29 01:39:58;;;;;;;26.67;25.27;;;23.70;51.80;;;;;;5032521;28;20022;-82
2022/07/29 01:42:32;;;;;;;26.73;25.10;;;23.70;51.70;;;;;;5013068;28;20064;-82
2022/07/29 01:45:05;;;;;;;27.98;26.27;;;23.60;52.00;;;;;;5046050;28;20511;-81
2022/07/29 01:47:35;;;;;;;27.13;25.63;;;23.50;52.50;;;;;;5048169;28;20037;-81
2022/07/29 01:50:01;;;;;;;27.70;26.10;;;23.60;52.70;;;;;;5049543;28;20479;-81
2022/07/29 01:52:39;;;;;;;31.40;29.40;;;23.60;52.90;;;;;;5036281;28;20037;-81
2022/07/29 01:55:13;;;;;;;32.22;30.35;;;23.60;52.60;;;;;;5036520;28;20032;-81
2022/07/29 01:57:40;;;;;;;25.13;23.63;;;23.70;52.90;;;;;;5052756;28;20025;-81
2022/07/29 02:00:07;;;;;;;29.95;28.25;;;23.60;53.00;;;;;;5051772;28;20025;-81
2022/07/29 02:02:33;;;;;;;27.13;25.42;;;23.60;52.80;;;;;;5053612;28;20051;-81
2022/07/29 02:05:00;;;;;;;26.58;25.13;;;23.60;53.00;;;;;;5052439;28;20467;-81
2022/07/29 02:07:27;;;;;;;26.25;24.85;;;23.60;53.00;;;;;;5053608;28;20357;-81
2022/07/29 02:09:53;;;;;;;28.98;27.38;;;23.50;53.50;;;;;;5035934;28;20033;-81
2022/07/29 02:12:19;;;;;;;27.45;26.02;;;23.50;53.40;;;;;;5018874;28;20041;-81
2022/07/29 02:14:48;;;;;;;27.10;25.50;;;23.50;53.60;;;;;;5035346;28;20035;-82
2022/07/29 02:17:17;;;;;;;27.92;26.55;;;23.40;53.70;;;;;;5051604;28;20043;-81
2022/07/29 02:19:43;;;;;;;26.70;25.20;;;23.30;54.20;;;;;;5035839;28;20482;-81
2022/07/29 02:22:09;;;;;;;27.35;25.75;;;23.30;54.30;;;;;;5052226;28;20028;-81
2022/07/29 02:24:35;;;;;;;24.98;23.40;;;23.50;54.80;;;;;;5052122;28;20498;-81
2022/07/29 02:27:02;;;;;;;27.08;25.65;;;23.50;53.60;;;;;;5051786;28;20034;-81
2022/07/29 02:29:28;;;;;;;25.48;24.08;;;23.30;54.50;;;;;;5035197;28;20032;-81
2022/07/29 02:31:54;;;;;;;28.85;27.25;;;23.20;55.00;;;;;;5034812;28;20033;-82
2022/07/29 02:34:20;;;;;;;28.33;26.38;;;23.10;55.50;;;;;;5046506;28;20029;-81
2022/07/29 02:36:47;;;;;;;27.42;25.85;;;23.10;55.40;;;;;;5032061;28;20034;-81
2022/07/29 02:39:14;;;;;;;27.60;26.17;;;23.30;55.00;;;;;;5043088;28;20040;-81
2022/07/29 02:41:51;;;;;;;27.73;26.05;;;23.30;54.90;;;;;;5051247;28;20033;-81
2022/07/29 02:44:24;;;;;;;27.70;26.00;;;23.40;54.40;;;;;;5041089;28;20041;-81
2022/07/29 02:47:09;;;;;;;26.33;24.73;;;23.60;54.10;;;;;;5051034;28;20431;-82
2022/07/29 02:49:45;;;;;;;27.65;26.05;;;23.70;53.80;;;;;;5051875;28;20024;-81
2022/07/29 02:52:20;;;;;;;29.00;27.13;;;23.70;53.80;;;;;;5051764;28;20045;-82
2022/07/29 02:54:59;;;;;;;25.92;24.40;;;23.70;53.50;;;;;;5052933;28;20025;-82
2022/07/29 02:57:33;;;;;;;26.05;24.48;;;23.80;53.50;;;;;;5051564;28;20032;-81
2022/07/29 03:00:04;;;;;;;29.48;27.58;;;23.80;53.40;;;;;;5050995;28;20032;-82
2022/07/29 03:02:30;;;;;;;29.00;27.40;;;23.80;54.10;;;;;;5050510;28;20048;-81
2022/07/29 03:04:56;;;;;;;28.85;27.17;;;23.80;54.40;;;;;;5051288;28;20025;-82
2022/07/29 03:07:22;;;;;;;27.20;25.65;;;23.70;55.60;;;;;;5034703;28;20044;-81
2022/07/29 03:09:48;;;;;;;31.10;29.27;;;23.30;57.30;;;;;;5034438;28;20033;-81
2022/07/29 03:12:14;;;;;;;27.35;25.85;;;23.10;58.20;;;;;;5051075;28;20044;-82
2022/07/29 03:14:40;;;;;;;32.85;30.95;;;22.90;58.40;;;;;;5050944;28;20025;-81
2022/07/29 03:17:07;;;;;;;28.17;26.50;;;22.90;58.70;;;;;;5050677;28;20525;-82
2022/07/29 03:19:34;;;;;;;24.25;22.85;;;22.90;58.80;;;;;;5034348;28;20045;-82
2022/07/29 03:22:00;;;;;;;29.23;27.42;;;22.90;58.60;;;;;;5050799;28;20415;-81
2022/07/29 03:24:34;;;;;;;29.30;27.48;;;23.00;58.20;;;;;;5051077;28;20036;-82
2022/07/29 03:27:01;;;;;;;38.55;36.35;;;22.90;58.70;;;;;;5050625;28;20025;-81
2022/07/29 03:29:27;;;;;;;62.72;59.47;;;23.10;58.20;;;;;;5051936;28;20021;-81
2022/07/29 03:31:53;;;;;;;44.65;42.25;;;23.20;58.40;;;;;;5051801;28;20079;-81
2022/07/29 03:34:20;;;;;;;37.53;35.45;;;23.10;58.80;;;;;;5051826;28;20021;-81
2022/07/29 03:36:46;;;;;;;34.05;32.25;;;22.80;60.20;;;;;;5052418;28;20037;-81
2022/07/29 03:39:13;;;;;;;41.05;38.80;;;22.50;62.10;;;;;;5050703;28;20032;-82
2022/07/29 03:41:39;;;;;;;33.35;31.50;;;22.30;63.10;;;;;;5050313;28;20510;-82
2022/07/29 03:44:05;;;;;;;49.47;46.85;;;22.30;62.90;;;;;;5041968;28;20036;-82
2022/07/29 03:46:31;;;;;;;40.50;38.20;;;22.30;63.10;;;;;;5046816;28;20056;-81
2022/07/29 03:48:59;;;;;;;40.22;37.58;;;22.50;61.80;;;;;;5050723;28;20032;-81
2022/07/29 03:51:26;;;;;;;43.17;40.28;;;22.60;62.40;;;;;;5051617;28;20498;-81
2022/07/29 03:53:52;;;;;;;38.00;35.97;;;22.50;62.10;;;;;;5050656;28;20029;-82
2022/07/29 03:56:20;;;;;;;38.33;36.22;;;22.40;63.20;;;;;;5051371;28;20037;-81
2022/07/29 03:58:46;;;;;;;43.13;40.72;;;22.40;63.10;;;;;;5050371;28;20029;-81
2022/07/29 04:01:12;;;;;;;45.63;43.08;;;22.60;62.20;;;;;;5033100;28;20411;-81
2022/07/29 04:03:38;;;;;;;49.10;46.28;;;22.70;62.40;;;;;;5050355;28;20036;-81
2022/07/29 04:06:05;;;;;;;50.13;47.47;;;22.80;62.10;;;;;;5050467;28;20467;-81
2022/07/29 04:08:32;;;;;;;45.88;43.25;;;22.80;61.70;;;;;;5050433;28;20025;-81
2022/07/29 04:10:59;;;;;;;38.92;36.72;;;22.70;62.30;;;;;;5049234;28;20048;-82
2022/07/29 04:13:25;;;;;;;43.35;40.95;;;22.40;62.70;;;;;;5050950;28;20041;-81
2022/07/29 04:15:51;;;;;;;45.08;42.40;;;22.10;64.00;;;;;;5049149;28;20029;-81
2022/07/29 04:18:18;;;;;;;42.20;39.95;;;22.00;64.20;;;;;;5033415;28;20037;-81
2022/07/29 04:20:44;;;;;;;40.85;38.72;;;22.00;64.30;;;;;;5051295;28;20032;-82
2022/07/29 04:23:10;;;;;;;39.40;37.25;;;21.90;65.00;;;;;;5051325;28;20414;-81
2022/07/29 04:25:40;;;;;;;46.13;43.53;;;22.00;64.10;;;;;;5049653;28;20032;-81
2022/07/29 04:28:06;;;;;;;37.53;35.55;;;22.00;64.20;;;;;;5050096;28;20033;-81
2022/07/29 04:30:33;;;;;;;43.03;40.53;;;22.20;65.00;;;;;;5048737;28;20593;-82
2022/07/29 04:33:00;;;;;;;50.45;47.83;;;22.20;64.00;;;;;;5033167;28;20037;-81
2022/07/29 04:35:27;;;;;;;48.90;46.17;;;22.30;63.60;;;;;;5050908;28;20028;-81
2022/07/29 04:37:53;;;;;;;39.50;37.40;;;22.40;63.70;;;;;;5050725;28;20036;-81
2022/07/29 04:40:19;;;;;;;39.20;37.05;;;22.30;64.30;;;;;;5030625;28;20472;-81
2022/07/29 04:42:46;;;;;;;39.20;36.88;;;22.10;64.40;;;;;;5031174;28;20045;-81
2022/07/29 04:45:12;;;;;;;44.00;41.53;;;22.10;66.00;;;;;;5026589;28;20042;-81
2022/07/29 04:47:38;;;;;;;39.65;37.53;;;21.70;68.10;;;;;;5031153;28;20030;-81
2022/07/29 04:50:06;;;;;;;40.03;37.65;;;21.50;68.40;;;;;;5030830;28;20412;-81
2022/07/29 04:52:33;;;;;;;41.40;39.03;;;21.50;68.50;;;;;;5046050;28;20387;-81
2022/07/29 04:54:59;;;;;;;37.28;35.38;;;21.60;67.80;;;;;;5046056;28;20021;-81
2022/07/29 04:57:25;;;;;;;38.75;36.70;;;21.70;68.10;;;;;;5031097;28;20021;-81
2022/07/29 04:59:51;;;;;;;41.65;39.47;;;21.60;67.40;;;;;;5030619;28;20030;-81
2022/07/29 05:02:18;;;;;;;49.65;46.88;;;21.70;67.40;;;;;;5030531;28;20038;-81
2022/07/29 05:04:44;;;;;;;41.08;38.63;;;21.70;66.90;;;;;;5046306;28;20035;-81
2022/07/29 05:07:10;;;;;;;39.75;37.60;;;21.60;67.40;;;;;;5046142;28;20033;-81
2022/07/29 05:09:36;;;;;;;40.00;37.70;;;21.60;67.60;;;;;;5030754;28;20029;-81
2022/07/29 05:12:02;;;;;;;40.50;38.33;;;21.60;67.70;;;;;;5046265;28;20034;-82
2022/07/29 05:14:28;;;;;;;39.05;36.65;;;21.60;67.90;;;;;;5030643;28;20515;-82
2022/07/29 05:16:56;;;;;;;39.13;36.72;;;21.70;67.40;;;;;;5030425;28;20038;-81
2022/07/29 05:19:23;;;;;;;37.03;34.78;;;21.70;67.90;;;;;;5030808;28;20021;-81
2022/07/29 05:21:49;;;;;;;35.95;33.95;;;21.60;69.30;;;;;;5030896;28;20387;-82
2022/07/29 05:24:16;;;;;;;39.58;37.30;;;21.60;68.50;;;;;;5046065;28;20495;-81
2022/07/29 05:26:42;;;;;;;34.85;32.83;;;21.60;68.90;;;;;;5034124;28;20029;-81
2022/07/29 05:29:08;;;;;;;40.03;37.92;;;21.70;68.00;;;;;;5049830;28;20034;-81
2022/07/29 05:31:34;;;;;;;41.22;38.92;;;21.80;68.30;;;;;;5034143;28;20049;-81
2022/07/29 05:34:00;;;;;;;40.22;38.13;;;21.70;68.10;;;;;;5052253;28;20040;-81
2022/07/29 05:36:26;;;;;;;40.25;37.90;;;21.80;68.30;;;;;;5036582;28;20029;-81
2022/07/29 05:38:52;;;;;;;40.40;38.20;;;21.80;67.80;;;;;;5045590;28;20448;-81
2022/07/29 05:41:19;;;;;;;41.70;39.38;;;21.90;67.70;;;;;;5033008;28;20025;-81
2022/07/29 05:43:45;;;;;;;43.47;41.17;;;22.00;67.30;;;;;;5038830;28;20214;-81
2022/07/29 05:46:11;;;;;;;41.38;39.15;;;22.10;67.00;;;;;;5053515;28;20044;-81
2022/07/29 05:48:38;;;;;;;40.70;38.47;;;22.10;66.80;;;;;;5054099;28;20029;-81
2022/07/29 05:51:04;;;;;;;40.10;37.90;;;22.00;66.90;;;;;;5052762;28;20049;-81
2022/07/29 05:53:30;;;;;;;37.88;35.78;;;22.00;66.90;;;;;;5036210;28;20357;-81
2022/07/29 05:55:57;;;;;;;44.15;41.20;;;21.70;68.80;;;;;;5052739;28;20037;-81
2022/07/29 05:58:23;;;;;;;41.30;38.78;;;21.50;69.00;;;;;;5052779;28;20094;-81
2022/07/29 06:00:49;;;;;;;39.72;37.42;;;21.50;69.00;;;;;;5052148;28;20040;-81
2022/07/29 06:03:15;;;;;;;38.45;35.75;;;21.40;70.10;;;;;;5055036;28;20037;-81
2022/07/29 06:05:41;;;;;;;39.30;36.35;;;21.40;70.50;;;;;;5054197;28;20033;-80
2022/07/29 06:08:07;;;;;;;39.83;37.45;;;21.20;69.90;;;;;;5052145;28;20036;-81
2022/07/29 06:10:36;;;;;;;39.08;37.03;;;21.20;70.10;;;;;;5053781;28;20368;-81
2022/07/29 06:13:03;;;;;;;39.00;36.95;;;21.30;69.60;;;;;;5035765;28;20064;-81
2022/07/29 06:15:29;;;;;;;35.63;33.30;;;21.30;69.00;;;;;;5053412;28;20391;-80
2022/07/29 06:17:55;;;;;;;35.53;33.20;;;21.30;68.30;;;;;;5053326;28;20036;-81
2022/07/29 06:20:21;;;;;;;34.88;32.78;;;21.30;69.00;;;;;;5053344;28;20418;-81
2022/07/29 06:22:47;;;;;;;35.25;33.10;;;21.30;68.10;;;;;;5051788;28;20369;-81
2022/07/29 06:25:14;;;;;;;38.13;35.63;;;21.20;66.70;;;;;;5052070;28;20036;-81
2022/07/29 06:27:40;;;;;;;34.13;32.17;;;21.20;65.50;;;;;;5052181;28;20380;-81
2022/07/29 06:30:09;;;;;;;30.73;29.08;;;21.10;64.90;;;;;;5051093;28;20040;-80
2022/07/29 06:32:35;;;;;;;32.35;30.58;;;21.00;64.60;;;;;;5052204;28;20048;-80
2022/07/29 06:35:02;;;;;;;28.20;26.55;;;20.90;65.30;;;;;;5042427;28;20041;-81
2022/07/29 06:37:28;;;;;;;31.77;29.90;;;21.00;65.80;;;;;;5032455;28;20029;-81
2022/07/29 06:42:42;;;;;;;31.40;29.30;;;21.40;64.10;;;;;;5053303;28;20411;-81
2022/07/29 06:45:09;;;;;;;33.10;31.17;;;21.50;64.10;;;;;;5040616;28;20041;-80
2022/07/29 06:47:36;;;;;;;30.60;28.77;;;21.60;63.00;;;;;;5050966;28;20041;-81
2022/07/29 06:50:02;;;;;;;29.23;27.52;;;21.60;62.60;;;;;;5052534;28;20399;-81
2022/07/29 06:52:29;;;;;;;27.48;25.95;;;21.30;63.30;;;;;;5053180;28;20100;-81
2022/07/29 06:54:55;;;;;;;27.13;25.55;;;21.20;63.60;;;;;;5052833;28;20029;-81
2022/07/29 06:57:21;;;;;;;28.67;27.08;;;21.20;63.70;;;;;;5052739;28;20036;-81
2022/07/29 06:59:48;;;;;;;26.73;25.33;;;21.20;63.90;;;;;;5052676;28;20033;-81
2022/07/29 07:02:14;;;;;;;25.35;23.83;;;21.20;63.80;;;;;;5052234;28;20381;-81
2022/07/29 07:04:40;;;;;;;27.48;25.65;;;21.30;64.20;;;;;;5052393;28;20491;-81
2022/07/29 07:07:06;;;;;;;28.23;26.65;;;21.20;64.80;;;;;;5051384;28;20036;-81
2022/07/29 07:09:32;;;;;;;27.75;25.85;;;21.10;64.80;;;;;;5034694;28;20396;-81
2022/07/29 07:11:58;;;;;;;29.45;27.92;;;21.20;64.80;;;;;;5051384;28;20041;-81
2022/07/29 07:14:26;;;;;;;31.88;30.00;;;21.40;64.90;;;;;;5051391;28;20029;-81
2022/07/29 07:16:52;;;;;;;29.60;27.55;;;21.40;64.20;;;;;;5051987;28;20037;-81
2022/07/29 07:19:19;;;;;;;28.38;26.67;;;21.30;64.80;;;;;;5051725;28;20029;-81
2022/07/29 07:21:45;;;;;;;30.27;28.50;;;21.40;65.00;;;;;;5052469;28;20033;-81
2022/07/29 07:24:11;;;;;;;30.75;28.90;;;21.30;64.80;;;;;;5052452;28;20355;-81
2022/07/29 07:26:39;;;;;;;30.05;28.48;;;21.40;64.70;;;;;;5051140;28;20029;-81
2022/07/29 07:29:05;;;;;;;30.52;28.73;;;21.50;65.00;;;;;;5052424;28;20494;-81
2022/07/29 07:31:31;;;;;;;34.00;32.03;;;21.50;64.90;;;;;;5051796;28;20041;-81
2022/07/29 07:33:57;;;;;;;30.85;28.95;;;21.60;64.60;;;;;;5051690;28;20040;-81
2022/07/29 07:36:23;;;;;;;34.75;32.92;;;21.70;64.90;;;;;;5052478;28;20489;-77
2022/07/29 07:38:50;;;;;;;34.22;32.28;;;21.70;64.00;;;;;;5050810;28;20032;-78
2022/07/29 07:41:16;;;;;;;31.42;29.73;;;21.70;63.90;;;;;;5050723;28;20032;-78
2022/07/29 07:43:42;;;;;;;33.28;31.42;;;21.80;64.40;;;;;;5045084;28;20025;-78
2022/07/29 07:46:08;;;;;;;33.00;30.95;;;21.90;63.50;;;;;;5045077;28;20041;-78
2022/07/29 07:48:34;;;;;;;33.75;31.63;;;22.00;63.50;;;;;;5049176;28;20028;-78
2022/07/29 07:51:00;;;;;;;29.45;27.67;;;22.20;62.70;;;;;;5050427;28;20032;-78
2022/07/29 07:53:29;;;;;;;30.23;28.52;;;22.30;61.30;;;;;;5050453;28;20107;-78
2022/07/29 07:55:55;;;;;;;31.98;30.13;;;22.30;61.60;;;;;;5050394;28;20028;-79
2022/07/29 07:58:21;;;;;;;30.00;28.35;;;22.30;62.50;;;;;;5050404;28;20033;-78
2022/07/29 08:00:47;;;;;;;33.97;32.08;;;22.60;61.20;;;;;;5051013;28;20100;-78
2022/07/29 08:03:14;;;;;;;30.55;28.85;;;22.70;61.70;;;;;;5051115;28;20407;-78
2022/07/29 08:05:40;;;;;;;33.63;31.50;;;22.80;60.80;;;;;;5051468;28;20360;-78
2022/07/29 08:08:06;;;;;;;33.05;31.15;;;22.80;61.10;;;;;;5051402;28;20360;-78
2022/07/29 08:13:18;;;;;;;32.03;29.85;;;23.00;59.60;;;;;;5050362;28;20055;-78
2022/07/29 08:15:45;;;;;;;28.98;27.08;;;23.10;58.60;;;;;;5032821;28;20033;-78
2022/07/29 08:18:14;;;;;;;29.85;27.55;;;23.00;58.10;;;;;;5033155;28;20045;-78
2022/07/29 08:20:40;;;;;;;28.33;26.60;;;23.20;58.80;;;;;;5049780;28;20404;-78
2022/07/29 08:23:08;;;;;;;27.23;25.42;;;23.30;57.50;;;;;;5050087;28;20050;-78
2022/07/29 08:25:38;;;;;;;28.60;27.00;;;23.30;56.00;;;;;;5033384;28;20060;-78
2022/07/29 08:28:05;;;;;;;27.45;25.85;;;23.40;56.30;;;;;;5033613;28;20348;-78
2022/07/29 08:30:32;;;;;;;33.38;31.27;;;23.60;55.40;;;;;;5049314;28;20029;-78
2022/07/29 08:32:58;;;;;;;35.92;33.72;;;23.70;55.30;;;;;;5033249;28;20045;-79
2022/07/29 08:35:24;;;;;;;39.20;36.83;;;23.90;55.90;;;;;;5049566;28;20025;-78
2022/07/29 08:37:51;;;;;;;31.10;29.50;;;24.10;54.80;;;;;;5049839;28;20036;-78
2022/07/29 08:40:17;;;;;;;28.98;27.30;;;24.20;54.00;;;;;;5049686;28;20028;-78
2022/07/29 08:42:43;;;;;;;28.65;26.77;;;24.30;52.60;;;;;;5049829;28;20055;-77
2022/07/29 08:45:10;;;;;;;27.52;25.85;;;24.40;53.00;;;;;;5021143;28;20037;-77
2022/07/29 08:47:39;;;;;;;26.73;25.10;;;24.50;52.60;;;;;;5032741;28;20044;-77
2022/07/29 08:50:09;;;;;;;22.88;21.67;;;24.50;50.30;;;;;;5049533;28;20025;-80
2022/07/29 08:52:40;;;;;;;22.13;21.03;;;24.50;50.30;;;;;;5033732;28;20045;-79
2022/07/29 08:55:08;;;;;;;21.73;20.58;;;24.50;51.40;;;;;;5033089;28;20283;-77
2022/07/29 08:57:35;;;;;;;24.02;22.77;;;24.60;51.30;;;;;;5049614;28;20037;-78
2022/07/29 09:00:03;;;;;;;23.63;22.38;;;24.80;51.00;;;;;;5035272;28;20029;-77
2022/07/29 09:02:29;;;;;;;24.30;22.83;;;24.80;51.60;;;;;;5035936;28;20431;-77
2022/07/29 09:04:56;;;;;;;25.80;24.15;;;24.80;52.00;;;;;;5036822;28;20060;-77
2022/07/29 09:07:22;;;;;;;25.42;24.05;;;24.90;52.00;;;;;;5053677;28;20021;-78
2022/07/29 09:09:48;;;;;;;25.52;24.10;;;24.90;52.00;;;;;;5036751;28;20037;-78
2022/07/29 09:12:15;;;;;;;24.67;23.27;;;24.90;52.00;;;;;;5053604;28;20045;-77
2022/07/29 09:14:41;;;;;;;27.67;25.83;;;25.00;51.10;;;;;;5053632;28;20043;-77
2022/07/29 09:17:07;;;;;;;29.42;27.63;;;25.20;50.60;;;;;;5053941;28;20037;-77
2022/07/29 09:19:34;;;;;;;30.55;28.77;;;25.50;50.40;;;;;;5053377;28;20029;-77
2022/07/29 09:22:02;;;;;;;29.17;27.58;;;25.90;50.10;;;;;;5036555;28;20032;-79
2022/07/29 09:24:34;;;;;;;31.73;30.00;;;26.10;48.40;;;;;;5036608;28;20418;-77
2022/07/29 09:27:01;;;;;;;30.90;28.98;;;26.20;47.20;;;;;;5053015;28;20379;-77
2022/07/29 09:29:27;;;;;;;33.08;31.02;;;26.30;47.30;;;;;;5036105;28;20045;-78
2022/07/29 09:31:54;;;;;;;34.92;33.10;;;26.40;44.90;;;;;;5052624;28;20065;-77
2022/07/29 09:34:25;;;;;;;34.00;32.30;;;26.40;45.60;;;;;;5052909;28;20024;-77
2022/07/29 09:36:51;;;;;;;32.88;31.17;;;26.60;44.50;;;;;;5053062;28;20052;-77
2022/07/29 09:39:34;;;;;;;34.35;32.65;;;26.60;44.20;;;;;;5052728;28;20029;-78
2022/07/29 09:42:03;;;;;;;33.60;31.80;;;26.60;44.20;;;;;;5036232;28;20052;-77
2022/07/29 09:44:45;;;;;;;32.67;30.92;;;26.60;43.90;;;;;;5040662;28;20022;-78
2022/07/29 09:47:11;;;;;;;32.95;31.27;;;26.50;43.10;;;;;;5035762;28;20040;-77
2022/07/29 09:50:00;;;;;;;33.13;31.13;;;26.50;42.80;;;;;;5036543;28;20056;-78
2022/07/29 09:52:27;;;;;;;32.97;31.13;;;26.40;42.50;;;;;;5052725;28;20052;-77
2022/07/29 09:55:04;;;;;;;32.22;30.40;;;26.40;42.30;;;;;;5035994;28;20040;-77
2022/07/29 09:57:30;;;;;;;30.77;28.98;;;26.40;42.90;;;;;;5052960;28;20025;-77
2022/07/29 09:59:58;;;;;;;30.30;28.65;;;26.50;43.10;;;;;;5035741;28;20025;-77
2022/07/29 10:02:28;;;;;;;35.65;33.83;;;26.40;43.00;;;;;;5035407;28;20036;-77
2022/07/29 10:04:55;;;;;;;30.75;29.08;;;26.50;42.80;;;;;;5052580;28;20033;-77
2022/07/29 10:07:21;;;;;;;27.80;26.05;;;26.60;43.10;;;;;;5052425;28;20047;-77
2022/07/29 10:09:54;;;;;;;28.52;27.02;;;26.60;42.90;;;;;;5052325;28;20510;-77
2022/07/29 10:12:21;;;;;;;37.88;35.65;;;26.50;42.80;;;;;;5051429;28;20041;-77
2022/07/29 10:14:47;;;;;;;39.92;37.90;;;26.50;43.20;;;;;;5052037;28;20494;-77
2022/07/29 10:17:13;;;;;;;31.10;29.27;;;26.60;42.30;;;;;;5053027;28;20037;-78
2022/07/29 10:19:39;;;;;;;34.10;32.20;;;26.70;42.00;;;;;;5035704;28;20400;-78
2022/07/29 10:22:07;;;;;;;33.58;31.77;;;27.10;42.70;;;;;;5035876;28;20055;-78
2022/07/29 10:24:33;;;;;;;35.45;33.55;;;27.60;42.00;;;;;;5035848;28;20036;-79
2022/07/29 10:27:01;;;;;;;42.17;39.90;;;27.90;41.40;;;;;;5052045;28;20036;-78
2022/07/29 10:29:28;;;;;;;40.30;37.90;;;28.10;40.80;;;;;;5053244;28;20025;-79
2022/07/29 10:32:13;;;;;;;39.05;37.08;;;28.10;40.30;;;;;;5034843;28;20048;-80
2022/07/29 10:34:51;;;;;;;44.83;42.30;;;28.20;40.80;;;;;;5053093;28;20028;-78
2022/07/29 10:37:28;;;;;;;49.88;47.28;;;28.50;39.90;;;;;;5053190;28;20043;-78
2022/07/29 10:41:26;;;;;;;49.47;46.67;;;28.60;38.00;;;;;;5051714;28;20017;-78
2022/07/29 10:42:54;;;;;;;1999.90;999.90;;;28.60;38.60;;;;;;5051703;28;20032;-79
2022/07/29 10:45:20;;;;;;;1999.90;999.90;;;28.60;37.70;;;;;;5039583;28;20361;-80
2022/07/29 10:47:46;;;;;;;1024.03;522.78;;;28.70;37.90;;;;;;5035019;28;20033;-79
2022/07/29 10:50:12;;;;;;;44.30;42.03;;;28.60;37.90;;;;;;5034922;28;20044;-78
2022/07/29 10:52:52;;;;;;;1999.90;999.90;;;28.50;38.10;;;;;;5051762;28;20041;-79
2022/07/29 10:55:36;;;;;;;42.20;40.03;;;28.70;37.40;;;;;;5051424;28;20041;-79
2022/07/29 10:58:21;;;;;;;1512.18;761.53;;;28.70;38.00;;;;;;5034851;28;20033;-79
2022/07/29 11:00:51;;;;;;;1999.90;999.90;;;28.80;38.30;;;;;;5050930;28;20027;-80
2022/07/29 11:03:47;;;;;;;1999.90;999.90;;;29.10;38.00;;;;;;5051428;28;20032;-80
2022/07/29 11:06:13;;;;;;;1999.90;999.90;;;29.40;36.70;;;;;;5030624;28;20044;-79
2022/07/29 11:08:39;;;;;;;1999.90;999.90;;;29.60;36.60;;;;;;5034446;28;20519;-80
2022/07/29 11:11:27;;;;;;;1999.90;999.90;;;29.50;36.30;;;;;;5034192;28;20423;-80
2022/07/29 11:13:54;;;;;;;1999.90;999.90;;;29.50;35.70;;;;;;5050943;28;20052;-80
2022/07/29 11:16:25;;;;;;;1999.90;999.90;;;29.60;36.10;;;;;;5050865;28;20029;-80
2022/07/29 11:19:10;;;;;;;1999.90;999.90;;;29.70;36.60;;;;;;5034980;28;20471;-80
2022/07/29 11:21:37;;;;;;;1999.90;999.90;;;29.80;36.80;;;;;;5050990;28;20033;-78
2022/07/29 11:24:24;;;;;;;1999.90;999.90;;;29.80;36.10;;;;;;5050939;28;20044;-78
2022/07/29 11:27:10;;;;;;;1999.90;999.90;;;29.80;35.50;;;;;;5051076;28;20498;-78
2022/07/29 11:29:49;;;;;;;1999.90;999.90;;;30.20;35.50;;;;;;5034008;28;20407;-78
2022/07/29 11:32:16;;;;;;;1999.90;999.90;;;30.30;34.90;;;;;;5050464;28;20040;-78
2022/07/29 11:34:42;;;;;;;1999.90;999.90;;;30.30;35.10;;;;;;5050642;28;20391;-78
2022/07/29 11:37:12;;;;;;;1999.90;999.90;;;30.40;35.10;;;;;;5050763;28;20025;-78
2022/07/29 11:40:07;;;;;;;1999.90;999.90;;;30.70;34.90;;;;;;5036976;28;20033;-78
2022/07/29 11:42:38;;;;;;;1999.90;999.90;;;31.00;34.80;;;;;;5001824;28;20133;-78
2022/07/29 11:45:05;;;;;;;1999.90;999.90;;;31.30;34.50;;;;;;5046767;28;20052;-78
2022/07/29 11:47:32;;;;;;;1999.90;999.90;;;31.30;33.80;;;;;;5050568;28;20377;-78
2022/07/29 11:49:59;;;;;;;1999.90;999.90;;;31.20;33.00;;;;;;5033772;28;20041;-78
2022/07/29 11:52:47;;;;;;;1999.90;999.90;;;30.50;34.20;;;;;;5034265;28;20029;-78
2022/07/29 11:55:18;;;;;;;1999.90;999.90;;;30.40;34.60;;;;;;5050187;28;20372;-78
2022/07/29 11:57:53;;;;;;;;;;;30.50;34.60;;;;;;5050957;28;20060;-78
2022/07/29 12:00:33;;;;;;;1999.90;999.90;;;30.80;34.70;;;;;;5050063;28;19912;-78
2022/07/29 12:03:05;;;;;;;1999.90;999.90;;;31.00;33.70;;;;;;5035230;28;20032;-78
2022/07/29 12:05:52;;;;;;;1999.90;999.90;;;30.90;33.80;;;;;;5051989;28;20464;-78
2022/07/29 12:08:21;;;;;;;1999.90;999.90;;;30.80;33.90;;;;;;5033633;28;20047;-78
2022/07/29 12:10:51;;;;;;;1999.90;999.90;;;31.00;34.40;;;;;;5017767;28;20419;-78
2022/07/29 12:13:19;;;;;;;1999.90;999.90;;;30.80;33.20;;;;;;5050150;28;20033;-78
2022/07/29 12:16:00;;;;;;;1999.90;999.90;;;30.70;34.10;;;;;;5049799;28;20472;-78
2022/07/29 12:18:26;;;;;;;;;;;30.60;34.30;;;;;;5035383;28;20041;-78
2022/07/29 12:21:02;;;;;;;1999.90;999.90;;;30.50;33.60;;;;;;5050073;28;19905;-78
2022/07/29 12:23:28;;;;;;;1999.90;999.90;;;30.60;34.00;;;;;;5033988;28;20025;-79
2022/07/29 12:25:54;;;;;;;1999.90;999.90;;;30.50;33.60;;;;;;5033644;28;20041;-78
2022/07/29 12:28:21;;;;;;;1999.90;999.90;;;30.50;33.70;;;;;;5017360;28;20045;-78
2022/07/29 12:30:48;;;;;;;1999.90;999.90;;;30.50;33.90;;;;;;5016504;28;20029;-78
2022/07/29 12:33:28;;;;;;;1999.90;999.90;;;30.50;33.10;;;;;;5033320;28;20045;-78
2022/07/29 12:35:58;;;;;;;1999.90;999.90;;;30.40;33.60;;;;;;5033058;28;20025;-78
2022/07/29 12:38:24;;;;;;;1999.90;999.90;;;30.70;32.80;;;;;;5033028;28;20024;-78